createdAt,value
2023-01-27T00:00:09.150Z,17.80
2023-01-27T00:02:38.448Z,17.27
2023-01-27T00:05:06.766Z,15.98
2023-01-27T00:07:34.130Z,16.20
2023-01-27T00:10:04.563Z,15.70
2023-01-27T00:12:49.345Z,14.10
2023-01-27T00:15:17.218Z,13.88
2023-01-27T00:17:44.997Z,13.38
2023-01-27T00:20:13.165Z,12.60
2023-01-27T00:22:58.276Z,11.70
2023-01-27T00:25:27.160Z,10.32
2023-01-27T00:27:54.728Z,9.20
2023-01-27T00:30:22.142Z,10.25
2023-01-27T00:33:07.191Z,9.70
2023-01-27T00:38:01.969Z,8.93
2023-01-27T00:40:30.655Z,11.35
2023-01-27T00:42:57.975Z,8.75
2023-01-27T00:45:42.942Z,8.75
2023-01-27T00:48:10.241Z,9.85
2023-01-27T00:50:38.603Z,8.65
2023-01-27T00:53:05.918Z,8.30
2023-01-27T00:55:35.266Z,8.45
2023-01-27T00:58:02.689Z,8.80
2023-01-27T01:00:30.486Z,8.50
2023-01-27T01:02:57.877Z,7.57
2023-01-27T01:05:25.498Z,9.20
2023-01-27T01:07:52.860Z,9.32
2023-01-27T01:10:20.331Z,9.18
2023-01-27T01:12:49.007Z,9.23
2023-01-27T01:15:16.501Z,9.75
2023-01-27T01:17:43.913Z,9.48
2023-01-27T01:20:12.403Z,10.52
2023-01-27T01:22:39.939Z,9.30
2023-01-27T01:25:07.896Z,10.00
2023-01-27T01:27:35.289Z,9.68
2023-01-27T01:30:04.980Z,9.57
2023-01-27T01:32:32.263Z,9.57
2023-01-27T01:35:00.127Z,10.25
2023-01-27T01:37:27.429Z,9.20
2023-01-27T01:39:55.020Z,9.60
2023-01-27T01:42:22.566Z,9.35
2023-01-27T01:44:52.667Z,10.65
2023-01-27T01:47:21.313Z,10.65
2023-01-27T01:49:48.697Z,10.18
2023-01-27T01:52:17.074Z,10.70
2023-01-27T01:54:45.987Z,11.43
2023-01-27T01:57:16.774Z,13.63
2023-01-27T01:59:46.735Z,13.85
2023-01-27T02:02:16.331Z,14.07
2023-01-27T02:04:47.311Z,12.38
2023-01-27T02:07:17.964Z,14.82
2023-01-27T02:09:45.976Z,14.15
2023-01-27T02:12:13.300Z,13.32
2023-01-27T02:14:43.484Z,14.68
2023-01-27T02:17:11.889Z,14.00
2023-01-27T02:19:43.417Z,14.80
2023-01-27T02:22:17.391Z,14.35
2023-01-27T02:24:47.053Z,16.30
2023-01-27T02:27:15.932Z,14.95
2023-01-27T02:29:43.208Z,15.13
2023-01-27T02:32:22.490Z,16.65
2023-01-27T02:34:49.879Z,16.40
2023-01-27T02:37:17.751Z,16.98
2023-01-27T02:39:46.986Z,15.20
2023-01-27T02:42:16.561Z,16.50
2023-01-27T02:44:44.099Z,14.77
2023-01-27T02:47:11.728Z,15.20
2023-01-27T02:49:39.666Z,13.60
2023-01-27T02:52:07.283Z,15.88
2023-01-27T02:54:34.869Z,15.48
2023-01-27T02:57:02.199Z,13.30
2023-01-27T02:59:35.161Z,15.50
2023-01-27T03:02:03.823Z,12.00
2023-01-27T03:04:31.109Z,11.70
2023-01-27T03:06:58.432Z,11.95
2023-01-27T03:09:25.718Z,9.43
2023-01-27T03:12:10.433Z,8.13
2023-01-27T03:14:56.849Z,8.30
2023-01-27T03:17:41.745Z,5.70
2023-01-27T03:20:13.494Z,6.38
2023-01-27T03:22:40.865Z,5.95
2023-01-27T03:25:09.358Z,4.97
2023-01-27T03:27:37.003Z,5.50
2023-01-27T03:30:06.481Z,5.30
2023-01-27T03:32:34.541Z,4.75
2023-01-27T03:35:03.784Z,6.15
2023-01-27T03:37:49.191Z,5.70
2023-01-27T03:40:34.989Z,5.90
2023-01-27T03:43:20.025Z,5.65
2023-01-27T03:48:34.046Z,5.00
2023-01-27T03:51:02.234Z,5.28
2023-01-27T03:53:29.913Z,6.55
2023-01-27T03:55:58.788Z,6.60
2023-01-27T03:58:27.167Z,6.45
2023-01-27T04:00:55.887Z,6.78
2023-01-27T04:03:41.756Z,7.15
2023-01-27T04:06:29.557Z,6.88
2023-01-27T04:08:57.270Z,7.75
2023-01-27T04:11:44.905Z,7.18
2023-01-27T04:14:13.371Z,7.40
2023-01-27T04:16:40.729Z,7.65
2023-01-27T04:19:09.012Z,7.28
2023-01-27T04:21:38.697Z,8.63
2023-01-27T04:24:08.685Z,9.55
2023-01-27T04:26:36.180Z,8.70
2023-01-27T04:29:04.632Z,9.45
2023-01-27T04:31:32.479Z,9.00
2023-01-27T04:34:00.296Z,9.90
2023-01-27T04:36:27.822Z,10.55
2023-01-27T04:38:56.507Z,10.02
2023-01-27T04:41:24.125Z,10.30
2023-01-27T04:43:51.420Z,10.02
2023-01-27T04:46:18.960Z,10.07
2023-01-27T04:48:46.659Z,9.85
2023-01-27T04:51:13.965Z,10.48
2023-01-27T04:53:41.299Z,9.18
2023-01-27T04:56:19.613Z,9.82
2023-01-27T04:58:46.966Z,10.35
2023-01-27T05:01:14.575Z,10.00
2023-01-27T05:03:42.218Z,9.52
2023-01-27T05:06:10.030Z,10.32
2023-01-27T05:08:37.638Z,9.43
2023-01-27T05:11:05.064Z,8.70
2023-01-27T05:13:34.196Z,10.23
2023-01-27T05:16:06.419Z,10.10
2023-01-27T05:18:35.399Z,8.73
2023-01-27T05:21:03.241Z,9.48
2023-01-27T05:23:36.455Z,8.38
2023-01-27T05:26:05.187Z,9.80
2023-01-27T05:28:34.454Z,8.25
2023-01-27T05:31:02.984Z,8.82
2023-01-27T05:33:30.677Z,7.60
2023-01-27T05:35:59.642Z,7.70
2023-01-27T05:38:27.189Z,9.15
2023-01-27T05:40:58.541Z,8.13
2023-01-27T05:43:26.089Z,8.93
2023-01-27T05:45:54.780Z,8.68
2023-01-27T05:48:22.093Z,9.80
2023-01-27T05:50:56.484Z,9.27
2023-01-27T05:53:24.590Z,9.45
2023-01-27T05:55:52.550Z,9.80
2023-01-27T05:58:20.145Z,9.50
2023-01-27T06:00:47.696Z,9.70
2023-01-27T06:03:16.460Z,10.75
2023-01-27T06:05:53.743Z,11.93
2023-01-27T06:08:21.186Z,10.70
2023-01-27T06:10:48.523Z,9.70
2023-01-27T06:13:16.016Z,12.68
2023-01-27T06:15:44.258Z,11.80
2023-01-27T06:18:12.078Z,12.50
2023-01-27T06:20:41.214Z,11.55
2023-01-27T06:23:11.561Z,11.93
2023-01-27T06:25:39.650Z,11.68
2023-01-27T06:28:10.754Z,12.77
2023-01-27T06:30:40.698Z,12.60
2023-01-27T06:33:08.353Z,13.05
2023-01-27T06:35:36.510Z,13.13
2023-01-27T06:38:06.004Z,12.05
2023-01-27T06:40:34.149Z,12.60
2023-01-27T06:43:03.186Z,12.43
2023-01-27T06:45:31.147Z,13.35
2023-01-27T06:47:59.298Z,13.40
2023-01-27T06:50:27.470Z,12.15
2023-01-27T06:52:59.788Z,12.77
2023-01-27T06:55:28.623Z,12.77
2023-01-27T06:57:56.022Z,13.15
2023-01-27T07:00:23.534Z,13.07
2023-01-27T07:02:51.147Z,13.25
2023-01-27T07:05:18.725Z,12.55
2023-01-27T07:07:46.074Z,13.27
2023-01-27T07:10:13.836Z,14.10
2023-01-27T07:12:42.735Z,13.60
2023-01-27T07:15:11.079Z,12.48
2023-01-27T07:17:38.919Z,15.85
2023-01-27T07:20:07.017Z,14.40
2023-01-27T07:22:34.578Z,13.30
2023-01-27T07:25:02.118Z,12.75
2023-01-27T07:27:29.485Z,14.18
2023-01-27T07:29:58.211Z,14.57
2023-01-27T07:32:27.374Z,15.30
2023-01-27T07:34:55.799Z,15.10
2023-01-27T07:37:23.879Z,13.93
2023-01-27T07:39:51.348Z,14.98
2023-01-27T07:42:18.686Z,14.90
2023-01-27T07:44:45.947Z,13.60
2023-01-27T07:47:14.788Z,12.38
2023-01-27T07:49:42.323Z,13.02
2023-01-27T07:52:09.688Z,12.95
2023-01-27T07:54:37.287Z,11.82
2023-01-27T07:57:04.580Z,11.85
2023-01-27T07:59:32.232Z,13.02
2023-01-27T08:01:59.534Z,12.15
2023-01-27T08:04:28.206Z,12.90
2023-01-27T08:06:55.591Z,13.75
2023-01-27T08:09:22.948Z,14.20
2023-01-27T08:11:50.820Z,15.57
2023-01-27T08:14:18.189Z,16.85
2023-01-27T08:16:48.185Z,14.02
2023-01-27T08:19:15.885Z,14.68
2023-01-27T08:21:44.564Z,15.10
2023-01-27T08:24:12.748Z,14.63
2023-01-27T08:26:40.090Z,15.75
2023-01-27T08:29:09.970Z,14.43
2023-01-27T08:31:37.325Z,15.93
2023-01-27T08:34:04.986Z,16.45
2023-01-27T08:36:32.570Z,15.20
2023-01-27T08:39:01.239Z,14.77
2023-01-27T08:41:29.025Z,16.23
2023-01-27T08:43:56.555Z,15.95
2023-01-27T08:46:23.937Z,14.25
2023-01-27T08:48:51.639Z,14.18
2023-01-27T08:51:19.012Z,13.98
2023-01-27T08:53:46.610Z,14.05
2023-01-27T08:56:16.060Z,13.02
2023-01-27T08:58:45.588Z,12.90
2023-01-27T09:01:13.136Z,12.40
2023-01-27T09:03:40.468Z,12.40
2023-01-27T09:06:09.087Z,13.32
2023-01-27T09:08:36.402Z,12.38
2023-01-27T09:11:09.524Z,11.20
2023-01-27T09:13:38.335Z,10.90
2023-01-27T09:16:09.779Z,11.20
2023-01-27T09:18:37.420Z,9.93
2023-01-27T09:21:05.860Z,11.07
2023-01-27T09:23:33.504Z,10.30
2023-01-27T09:26:00.794Z,9.57
2023-01-27T09:28:28.135Z,10.32
2023-01-27T09:30:59.295Z,10.77
2023-01-27T09:33:26.916Z,9.90
2023-01-27T09:35:58.607Z,9.85
2023-01-27T09:38:27.273Z,9.70
2023-01-27T09:41:04.425Z,9.38
2023-01-27T09:44:04.846Z,8.82
2023-01-27T09:46:42.891Z,8.65
2023-01-27T09:49:23.843Z,7.82
2023-01-27T09:51:54.960Z,7.55
2023-01-27T09:54:32.226Z,7.90
2023-01-27T09:57:05.076Z,7.35
2023-01-27T09:59:42.488Z,7.15
2023-01-27T10:02:16.486Z,7.22
2023-01-27T10:04:58.737Z,6.53
2023-01-27T10:07:33.241Z,7.43
2023-01-27T10:10:21.772Z,8.48
2023-01-27T10:12:55.203Z,7.53
2023-01-27T10:15:29.537Z,8.32
2023-01-27T10:18:02.447Z,8.73
2023-01-27T10:20:33.377Z,7.82
2023-01-27T10:23:09.000Z,6.53
2023-01-27T10:25:41.868Z,6.88
2023-01-27T10:28:12.803Z,6.90
2023-01-27T10:30:44.799Z,5.50
2023-01-27T10:33:20.615Z,5.10
2023-01-27T10:35:51.841Z,5.68
2023-01-27T10:38:26.994Z,6.25
2023-01-27T10:40:57.379Z,6.53
2023-01-27T10:43:30.277Z,6.65
2023-01-27T10:45:59.529Z,5.90
2023-01-27T10:48:35.360Z,6.20
2023-01-27T10:51:04.147Z,5.78
2023-01-27T10:53:35.056Z,5.80
2023-01-27T10:56:05.505Z,5.70
2023-01-27T10:58:38.728Z,5.57
2023-01-27T11:01:23.695Z,5.88
2023-01-27T11:06:23.625Z,5.85
2023-01-27T11:08:52.968Z,5.80
2023-01-27T11:11:39.172Z,6.57
2023-01-27T11:14:18.161Z,4.95
2023-01-27T11:16:47.447Z,5.35
2023-01-27T11:19:17.975Z,6.57
2023-01-27T11:21:55.433Z,5.68
2023-01-27T11:24:31.794Z,5.35
2023-01-27T11:27:02.200Z,4.90
2023-01-27T11:29:32.949Z,4.65
2023-01-27T11:32:03.535Z,5.22
2023-01-27T11:34:35.136Z,6.28
2023-01-27T11:37:11.156Z,5.47
2023-01-27T11:39:38.688Z,5.80
2023-01-27T11:42:06.128Z,5.15
2023-01-27T11:44:35.385Z,5.78
2023-01-27T11:47:03.420Z,5.85
2023-01-27T11:49:31.946Z,5.88
2023-01-27T11:52:05.492Z,5.55
2023-01-27T11:54:38.751Z,4.72
2023-01-27T11:57:08.265Z,5.45
2023-01-27T11:59:39.895Z,5.38
2023-01-27T12:02:16.135Z,4.82
2023-01-27T12:04:49.668Z,4.82
2023-01-27T12:07:23.367Z,4.25
2023-01-27T12:09:52.649Z,3.72
2023-01-27T12:12:23.941Z,4.18
2023-01-27T12:14:53.976Z,3.95
2023-01-27T12:17:26.983Z,3.90
2023-01-27T12:19:55.644Z,3.25
2023-01-27T12:22:25.616Z,3.42
2023-01-27T12:24:56.966Z,2.90
2023-01-27T12:27:31.023Z,3.30
2023-01-27T12:29:59.794Z,2.45
2023-01-27T12:32:32.626Z,2.25
2023-01-27T12:35:00.029Z,2.00
2023-01-27T12:37:28.900Z,2.10
2023-01-27T12:40:00.406Z,1.80
2023-01-27T12:42:34.576Z,2.00
2023-01-27T12:45:02.062Z,1.90
2023-01-27T12:47:30.407Z,2.05
2023-01-27T12:50:16.301Z,1.85
2023-01-27T12:52:43.742Z,1.90
2023-01-27T12:55:28.476Z,1.73
2023-01-27T12:57:55.808Z,1.73
2023-01-27T13:00:23.127Z,1.83
2023-01-27T13:02:51.915Z,1.80
2023-01-27T13:05:19.997Z,2.00
2023-01-27T13:07:48.865Z,1.60
2023-01-27T13:10:20.387Z,1.70
2023-01-27T13:12:51.612Z,1.80
2023-01-27T13:15:20.064Z,1.80
2023-01-27T13:17:48.809Z,1.70
2023-01-27T13:20:18.713Z,1.60
2023-01-27T13:22:47.569Z,1.38
2023-01-27T13:25:17.620Z,1.63
2023-01-27T13:27:45.047Z,1.90
2023-01-27T13:30:17.904Z,1.90
2023-01-27T13:32:47.463Z,1.98
2023-01-27T13:35:19.366Z,1.65
2023-01-27T13:37:49.516Z,1.83
2023-01-27T13:40:19.254Z,1.73
2023-01-27T13:42:49.162Z,1.95
2023-01-27T13:45:19.656Z,1.70
2023-01-27T13:47:50.728Z,2.00
2023-01-27T13:50:23.205Z,1.95
2023-01-27T13:52:52.592Z,2.10
2023-01-27T13:55:22.473Z,2.20
2023-01-27T13:57:55.331Z,2.20
2023-01-27T14:00:27.408Z,2.72
2023-01-27T14:03:13.817Z,2.50
2023-01-27T14:05:46.685Z,2.97
2023-01-27T14:08:20.645Z,2.97
2023-01-27T14:10:56.859Z,3.00
2023-01-27T14:13:31.987Z,2.90
2023-01-27T14:16:03.018Z,3.28
2023-01-27T14:18:31.682Z,2.67
2023-01-27T14:21:06.241Z,4.13
2023-01-27T14:23:38.828Z,3.70
2023-01-27T14:26:21.021Z,3.47
2023-01-27T14:28:54.185Z,3.58
2023-01-27T14:31:25.427Z,3.30
2023-01-27T14:34:01.488Z,3.47
2023-01-27T14:36:31.558Z,3.00
2023-01-27T14:39:03.323Z,3.00
2023-01-27T14:41:35.265Z,2.85
2023-01-27T14:44:07.801Z,2.88
2023-01-27T14:46:47.876Z,2.92
2023-01-27T14:49:21.423Z,4.07
2023-01-27T14:51:51.617Z,5.38
2023-01-27T14:54:26.142Z,6.45
2023-01-27T14:57:01.594Z,6.93
2023-01-27T14:59:36.382Z,7.80
2023-01-27T15:04:42.308Z,7.00
2023-01-27T15:07:17.137Z,7.57
2023-01-27T15:12:29.649Z,4.80
2023-01-27T15:17:32.078Z,2.78
2023-01-27T15:20:24.360Z,2.70
2023-01-27T15:23:01.122Z,2.42
2023-01-27T15:25:33.292Z,2.20
2023-01-27T15:28:01.626Z,2.40
2023-01-27T15:30:29.936Z,2.40
2023-01-27T15:32:58.150Z,2.60
2023-01-27T15:35:37.936Z,2.85
2023-01-27T15:38:21.812Z,2.58
2023-01-27T15:41:01.087Z,2.72
2023-01-27T15:43:30.420Z,2.90
2023-01-27T15:45:58.818Z,3.05
2023-01-27T15:48:35.151Z,2.42
2023-01-27T15:51:06.733Z,2.95
2023-01-27T15:53:39.990Z,2.65
2023-01-27T15:56:07.899Z,2.72
2023-01-27T15:58:37.663Z,2.10
2023-01-27T16:01:06.467Z,2.40
2023-01-27T16:03:35.446Z,2.00
2023-01-27T16:06:08.902Z,1.95
2023-01-27T16:08:39.633Z,2.58
2023-01-27T16:11:23.139Z,2.33
2023-01-27T16:13:50.493Z,2.22
2023-01-27T16:16:38.626Z,3.90
2023-01-27T16:19:17.962Z,3.53
2023-01-27T16:21:49.398Z,3.40
2023-01-27T16:24:22.193Z,2.95
2023-01-27T16:26:51.163Z,3.40
2023-01-27T16:29:30.914Z,4.53
2023-01-27T16:32:00.460Z,3.25
2023-01-27T16:34:33.322Z,3.15
2023-01-27T16:37:15.563Z,3.10
2023-01-27T16:39:45.981Z,2.60
2023-01-27T16:42:15.130Z,2.53
2023-01-27T16:44:46.747Z,2.92
2023-01-27T16:47:23.904Z,2.53
2023-01-27T16:49:52.993Z,2.72
2023-01-27T16:52:35.963Z,2.83
2023-01-27T16:55:16.654Z,3.30
2023-01-27T16:57:46.291Z,3.45
2023-01-27T17:00:19.968Z,4.13
2023-01-27T17:02:50.214Z,5.18
2023-01-27T17:05:19.095Z,6.40
2023-01-27T17:08:01.730Z,5.85
2023-01-27T17:10:34.855Z,6.35
2023-01-27T17:13:02.782Z,7.15
2023-01-27T17:15:31.383Z,7.10
2023-01-27T17:17:59.134Z,7.50
2023-01-27T17:20:28.242Z,7.53
2023-01-27T17:22:56.231Z,6.40
2023-01-27T17:25:26.919Z,6.38
2023-01-27T17:27:56.250Z,7.05
2023-01-27T17:30:24.857Z,7.45
2023-01-27T17:32:52.985Z,6.88
2023-01-27T17:35:21.825Z,7.80
2023-01-27T17:37:49.105Z,7.47
2023-01-27T17:40:18.096Z,7.55
2023-01-27T17:42:45.677Z,7.85
2023-01-27T17:45:24.791Z,8.05
2023-01-27T17:47:52.422Z,7.35
2023-01-27T17:50:20.573Z,7.85
2023-01-27T17:52:52.501Z,7.78
2023-01-27T17:55:22.376Z,7.15
2023-01-27T17:57:50.519Z,7.32
2023-01-27T18:00:23.070Z,6.95
2023-01-27T18:02:53.944Z,7.38
2023-01-27T18:05:22.484Z,7.03
2023-01-27T18:07:50.111Z,7.75
2023-01-27T18:10:25.378Z,8.02
2023-01-27T18:12:53.239Z,7.25
2023-01-27T18:15:33.607Z,6.88
2023-01-27T18:18:03.103Z,7.07
2023-01-27T18:20:31.975Z,8.02
2023-01-27T18:22:59.719Z,6.97
2023-01-27T18:25:29.159Z,8.07
2023-01-27T18:27:57.070Z,7.65
2023-01-27T18:30:25.910Z,7.95
2023-01-27T18:32:54.162Z,7.85
2023-01-27T18:35:27.161Z,8.25
2023-01-27T18:37:56.148Z,9.13
2023-01-27T18:40:26.018Z,10.68
2023-01-27T18:42:53.669Z,10.50
2023-01-27T18:45:21.033Z,11.55
2023-01-27T18:47:48.397Z,11.43
2023-01-27T18:50:17.986Z,12.07
2023-01-27T18:52:47.162Z,105.53
2023-01-27T18:55:16.425Z,41.35
2023-01-27T18:57:44.440Z,13.80
2023-01-27T19:00:12.872Z,14.80
2023-01-27T19:02:40.219Z,56.65
2023-01-27T19:05:16.074Z,24.83
2023-01-27T19:07:43.600Z,16.90
2023-01-27T19:10:15.160Z,14.10
2023-01-27T19:12:42.499Z,17.77
2023-01-27T19:15:10.629Z,13.73
2023-01-27T19:17:38.095Z,18.88
2023-01-27T19:20:13.404Z,35.38
2023-01-27T19:22:40.724Z,13.60
2023-01-27T19:25:08.412Z,11.02
2023-01-27T19:27:38.129Z,12.93
2023-01-27T19:30:20.033Z,16.15
2023-01-27T19:32:47.567Z,12.68
2023-01-27T19:35:15.241Z,15.32
2023-01-27T19:37:42.902Z,10.88
2023-01-27T19:40:16.237Z,17.58
2023-01-27T19:42:45.011Z,15.45
2023-01-27T19:45:13.910Z,15.52
2023-01-27T19:47:43.900Z,24.25
2023-01-27T19:50:16.781Z,18.27
2023-01-27T19:52:44.119Z,19.70
2023-01-27T19:55:11.746Z,18.38
2023-01-27T19:57:39.551Z,26.70
2023-01-27T20:00:18.977Z,59.33
2023-01-27T20:02:46.313Z,28.50
2023-01-27T20:05:14.384Z,52.97
2023-01-27T20:07:43.381Z,14.50
2023-01-27T20:10:14.786Z,17.25
2023-01-27T20:12:42.077Z,9.73
2023-01-27T20:15:12.582Z,10.52
2023-01-27T20:17:40.049Z,10.77
2023-01-27T20:20:07.636Z,8.75
2023-01-27T20:22:36.522Z,9.02
2023-01-27T20:25:04.113Z,12.23
2023-01-27T20:27:31.711Z,12.40
2023-01-27T20:29:59.302Z,11.68
2023-01-27T20:32:28.162Z,8.35
2023-01-27T20:34:59.055Z,10.23
2023-01-27T20:37:26.621Z,8.15
2023-01-27T20:39:54.001Z,10.60
2023-01-27T20:42:21.277Z,11.15
2023-01-27T20:44:48.599Z,10.15
2023-01-27T20:47:16.254Z,8.43
2023-01-27T20:49:45.901Z,9.55
2023-01-27T20:52:13.228Z,7.50
2023-01-27T20:54:40.504Z,8.77
2023-01-27T20:57:08.107Z,9.57
2023-01-27T20:59:35.618Z,8.82
2023-01-27T21:02:05.426Z,11.63
2023-01-27T21:04:33.021Z,10.18
2023-01-27T21:07:01.847Z,12.23
2023-01-27T21:09:29.199Z,13.05
2023-01-27T21:11:56.543Z,12.85
2023-01-27T21:14:23.856Z,14.50
2023-01-27T21:16:51.188Z,13.95
2023-01-27T21:19:19.153Z,13.88
2023-01-27T21:21:47.063Z,13.70
2023-01-27T21:24:15.790Z,14.95
2023-01-27T21:26:43.127Z,14.80
2023-01-27T21:29:11.962Z,15.32
2023-01-27T21:31:40.429Z,14.20
2023-01-27T21:34:10.141Z,13.48
2023-01-27T21:36:37.480Z,14.77
2023-01-27T21:39:04.756Z,14.73
2023-01-27T21:41:51.240Z,13.80
2023-01-27T21:44:37.497Z,13.05
2023-01-27T21:47:05.280Z,13.48
2023-01-27T21:49:34.404Z,13.77
2023-01-27T21:52:01.689Z,12.63
2023-01-27T21:54:31.949Z,12.93
2023-01-27T21:57:00.810Z,11.77
2023-01-27T21:59:28.095Z,10.95
2023-01-27T22:01:55.632Z,10.77
2023-01-27T22:04:23.235Z,9.25
2023-01-27T22:06:50.639Z,9.40
2023-01-27T22:09:17.984Z,8.65
2023-01-27T22:11:45.277Z,8.63
2023-01-27T22:14:13.955Z,7.80
2023-01-27T22:16:41.350Z,7.63
2023-01-27T22:19:08.707Z,7.00
2023-01-27T22:21:36.000Z,6.28
2023-01-27T22:24:03.425Z,6.53
2023-01-27T22:26:30.764Z,6.63
2023-01-27T22:28:58.103Z,6.60
2023-01-27T22:31:26.786Z,6.15
2023-01-27T22:33:54.129Z,6.93
2023-01-27T22:36:21.584Z,6.72
2023-01-27T22:38:48.896Z,5.68
2023-01-27T22:41:16.411Z,6.53
2023-01-27T22:43:43.718Z,6.15
2023-01-27T22:46:11.043Z,6.30
2023-01-27T22:48:39.673Z,6.03
2023-01-27T22:51:07.571Z,6.05
2023-01-27T22:53:34.897Z,6.30
2023-01-27T22:56:02.917Z,6.40
2023-01-27T22:58:30.800Z,6.75
2023-01-27T23:00:58.482Z,6.35
2023-01-27T23:03:26.044Z,6.25
2023-01-27T23:05:54.666Z,6.05
2023-01-27T23:08:21.985Z,6.22
2023-01-27T23:10:49.823Z,6.05
2023-01-27T23:13:17.437Z,6.22
2023-01-27T23:15:44.713Z,6.13
2023-01-27T23:18:12.125Z,6.38
2023-01-27T23:20:41.299Z,5.20
2023-01-27T23:23:10.349Z,5.75
2023-01-27T23:25:41.621Z,5.97
2023-01-27T23:28:08.933Z,5.68
2023-01-27T23:30:36.354Z,5.88
2023-01-27T23:33:03.745Z,5.22
2023-01-27T23:35:31.088Z,4.68
2023-01-27T23:37:58.450Z,4.70
2023-01-27T23:40:27.425Z,4.10
2023-01-27T23:42:54.810Z,3.60
2023-01-27T23:45:22.089Z,4.45
2023-01-27T23:47:49.410Z,4.90
2023-01-27T23:50:17.236Z,4.75
2023-01-27T23:52:44.552Z,5.25
2023-01-27T23:55:12.633Z,5.03
2023-01-27T23:57:41.849Z,5.28
